Aviation Digital Data Service (ADDS)

Output produced by METARs form (0247 UTC 20 March 2019)
found at http://www.aviationweather.gov/metar/data/
 
METAR text: RKTU 200200Z 22001KT 6000 NSC 13/05 Q1014
Conditions at: RKTU (JONGJU (KAFB-AR , KR) observed 0200 UTC 20 March 2019
Temperature: 13.0°C (55°F)
Dewpoint: 5.0°C (41°F) [RH = 58%]
Pressure (altimeter): 29.94 inches Hg (1014.0 mb)
Winds: from the SW (220 degrees) at 1 MPH (1 knots; 0.5 m/s)
Visibility: 4 miles ( 6 km)
Ceiling: at least 12,000 feet AGL
Clouds: sky clear below 12,000 feet AGL
Weather: no significant weather observed at this time

METAR text: RKTU 200100Z 32001KT 6000 NSC 11/05 Q1015
Conditions at: RKTU (JONGJU (KAFB-AR , KR) observed 0100 UTC 20 March 2019
Temperature: 11.0°C (52°F)
Dewpoint: 5.0°C (41°F) [RH = 66%]
Pressure (altimeter): 29.97 inches Hg (1015.0 mb)
Winds: from the NW (320 degrees) at 1 MPH (1 knots; 0.5 m/s)
Visibility: 4 miles ( 6 km)
Ceiling: at least 12,000 feet AGL
Clouds: sky clear below 12,000 feet AGL
Weather: no significant weather observed at this time

METAR text: RKTU 200036Z 03003KT 4800 BR NSC 10/05 Q1015 RMK CIG200
Conditions at: RKTU (JONGJU (KAFB-AR , KR) observed 0036 UTC 20 March 2019
Temperature: 10.0°C (50°F)
Dewpoint: 5.0°C (41°F) [RH = 71%]
Pressure (altimeter): 29.97 inches Hg (1015.0 mb)
Winds: from the NNE (30 degrees) at 3 MPH (3 knots; 1.5 m/s)
Visibility: 2.98 miles (4.80 km)
Ceiling: at least 12,000 feet AGL
Clouds: sky clear below 12,000 feet AGL
Weather: BR  (mist)

METAR text: RKTU 200000Z 07003KT 3200 BR FEW000 BKN200 08/05 Q1015
Conditions at: RKTU (JONGJU (KAFB-AR , KR) observed 0000 UTC 20 March 2019
Temperature: 8.0°C (46°F)
Dewpoint: 5.0°C (41°F) [RH = 81%]
Pressure (altimeter): 29.97 inches Hg (1015.0 mb)
Winds: from the ENE (70 degrees) at 3 MPH (3 knots; 1.5 m/s)
Visibility: 1.99 miles (3.20 km)
Ceiling: 20000 feet AGL
Clouds: few clouds at 0 feet AGL
broken clouds at 20000 feet AGL
Weather: BR  (mist)

METAR text: RKTU 192300Z 01002KT 2000 BR FEW000 BKN200 05/03 Q1015
Conditions at: RKTU (JONGJU (KAFB-AR , KR) observed 2300 UTC 19 March 2019
Temperature: 5.0°C (41°F)
Dewpoint: 3.0°C (37°F) [RH = 87%]
Pressure (altimeter): 29.97 inches Hg (1015.0 mb)
Winds: from the N (10 degrees) at 2 MPH (2 knots; 1.0 m/s)
Visibility: 1.24 miles (2.00 km)
Ceiling: 20000 feet AGL
Clouds: few clouds at 0 feet AGL
broken clouds at 20000 feet AGL
Weather: BR  (mist)

METAR text: RKTU 192200Z 08002KT 2000 BR FEW000 BKN200 04/03 Q1015
Conditions at: RKTU (JONGJU (KAFB-AR , KR) observed 2200 UTC 19 March 2019
Temperature: 4.0°C (39°F)
Dewpoint: 3.0°C (37°F) [RH = 93%]
Pressure (altimeter): 29.97 inches Hg (1015.0 mb)
Winds: from the E (80 degrees) at 2 MPH (2 knots; 1.0 m/s)
Visibility: 1.24 miles (2.00 km)
Ceiling: 20000 feet AGL
Clouds: few clouds at 0 feet AGL
broken clouds at 20000 feet AGL
Weather: BR  (mist)

METAR text: RKTU 192100Z 24001KT 2400 BR FEW000 BKN200 03/03 Q1016
Conditions at: RKTU (JONGJU (KAFB-AR , KR) observed 2100 UTC 19 March 2019
Temperature: 3.0°C (37°F)
Dewpoint: 3.0°C (37°F) [RH = 100%]
Pressure (altimeter): 30.00 inches Hg (1016.0 mb)
Winds: from the WSW (240 degrees) at 1 MPH (1 knots; 0.5 m/s)
Visibility: 1.49 miles (2.40 km)
Ceiling: 20000 feet AGL
Clouds: few clouds at 0 feet AGL
broken clouds at 20000 feet AGL
Weather: BR  (mist)

METAR text: RKTU 192045Z 26001KT 2400 BR FEW000 BKN200 03/02 Q1016 RMK CIG200 FG FEW000
Conditions at: RKTU (JONGJU (KAFB-AR , KR) observed 2045 UTC 19 March 2019
Temperature: 3.0°C (37°F)
Dewpoint: 2.0°C (36°F) [RH = 93%]
Pressure (altimeter): 30.00 inches Hg (1016.0 mb)
Winds: from the W (260 degrees) at 1 MPH (1 knots; 0.5 m/s)
Visibility: 1.49 miles (2.40 km)
Ceiling: 20000 feet AGL
Clouds: few clouds at 0 feet AGL
broken clouds at 20000 feet AGL
Weather: BR  (mist)

METAR text: RKTU 192035Z 32001KT 3200 BR NSC 03/01 Q1016 RMK CIG200
Conditions at: RKTU (JONGJU (KAFB-AR , KR) observed 2035 UTC 19 March 2019
Temperature: 3.0°C (37°F)
Dewpoint: 1.0°C (34°F) [RH = 87%]
Pressure (altimeter): 30.00 inches Hg (1016.0 mb)
Winds: from the NW (320 degrees) at 1 MPH (1 knots; 0.5 m/s)
Visibility: 1.99 miles (3.20 km)
Ceiling: at least 12,000 feet AGL
Clouds: sky clear below 12,000 feet AGL
Weather: BR  (mist)

METAR text: RKTU 192000Z 12003KT 4000 BR NSC 05/04 Q1016
Conditions at: RKTU (JONGJU (KAFB-AR , KR) observed 2000 UTC 19 March 2019
Temperature: 5.0°C (41°F)
Dewpoint: 4.0°C (39°F) [RH = 93%]
Pressure (altimeter): 30.00 inches Hg (1016.0 mb)
Winds: from the ESE (120 degrees) at 3 MPH (3 knots; 1.5 m/s)
Visibility: 2.49 miles (4.01 km)
Ceiling: at least 12,000 feet AGL
Clouds: sky clear below 12,000 feet AGL
Weather: BR  (mist)

METAR text: RKTU 191900Z 31002KT 4800 BR NSC 05/03 Q1017
Conditions at: RKTU (JONGJU (KAFB-AR , KR) observed 1900 UTC 19 March 2019
Temperature: 5.0°C (41°F)
Dewpoint: 3.0°C (37°F) [RH = 87%]
Pressure (altimeter): 30.03 inches Hg (1017.0 mb)
Winds: from the NW (310 degrees) at 2 MPH (2 knots; 1.0 m/s)
Visibility: 2.98 miles (4.80 km)
Ceiling: at least 12,000 feet AGL
Clouds: sky clear below 12,000 feet AGL
Weather: BR  (mist)

METAR text: RKTU 191800Z 11001KT 4800 BR NSC 05/03 Q1017
Conditions at: RKTU (JONGJU (KAFB-AR , KR) observed 1800 UTC 19 March 2019
Temperature: 5.0°C (41°F)
Dewpoint: 3.0°C (37°F) [RH = 87%]
Pressure (altimeter): 30.03 inches Hg (1017.0 mb)
Winds: from the ESE (110 degrees) at 1 MPH (1 knots; 0.5 m/s)
Visibility: 2.98 miles (4.80 km)
Ceiling: at least 12,000 feet AGL
Clouds: sky clear below 12,000 feet AGL
Weather: BR  (mist)

METAR text: RKTU 191700Z 13001KT 4800 BR NSC 05/03 Q1018
Conditions at: RKTU (JONGJU (KAFB-AR , KR) observed 1700 UTC 19 March 2019
Temperature: 5.0°C (41°F)
Dewpoint: 3.0°C (37°F) [RH = 87%]
Pressure (altimeter): 30.06 inches Hg (1018.0 mb)
Winds: from the SE (130 degrees) at 1 MPH (1 knots; 0.5 m/s)
Visibility: 2.98 miles (4.80 km)
Ceiling: at least 12,000 feet AGL
Clouds: sky clear below 12,000 feet AGL
Weather: BR  (mist)

METAR text: RKTU 191600Z 09002KT 6000 NSC 06/03 Q1018
Conditions at: RKTU (JONGJU (KAFB-AR , KR) observed 1600 UTC 19 March 2019
Temperature: 6.0°C (43°F)
Dewpoint: 3.0°C (37°F) [RH = 81%]
Pressure (altimeter): 30.06 inches Hg (1018.0 mb)
Winds: from the E (90 degrees) at 2 MPH (2 knots; 1.0 m/s)
Visibility: 4 miles ( 6 km)
Ceiling: at least 12,000 feet AGL
Clouds: sky clear below 12,000 feet AGL
Weather: no significant weather observed at this time

METAR text: RKTU 191500Z 36001KT 8000 NSC 06/03 Q1018
Conditions at: RKTU (JONGJU (KAFB-AR , KR) observed 1500 UTC 19 March 2019
Temperature: 6.0°C (43°F)
Dewpoint: 3.0°C (37°F) [RH = 81%]
Pressure (altimeter): 30.06 inches Hg (1018.0 mb)
Winds: from the N (360 degrees) at 1 MPH (1 knots; 0.5 m/s)
Visibility: 5 miles ( 8 km)
Ceiling: at least 12,000 feet AGL
Clouds: sky clear below 12,000 feet AGL
Weather: no significant weather observed at this time

METAR text: RKTU 191400Z 16001KT 8000 NSC 09/04 Q1018
Conditions at: RKTU (JONGJU (KAFB-AR , KR) observed 1400 UTC 19 March 2019
Temperature: 9.0°C (48°F)
Dewpoint: 4.0°C (39°F) [RH = 71%]
Pressure (altimeter): 30.06 inches Hg (1018.0 mb)
Winds: from the SSE (160 degrees) at 1 MPH (1 knots; 0.5 m/s)
Visibility: 5 miles ( 8 km)
Ceiling: at least 12,000 feet AGL
Clouds: sky clear below 12,000 feet AGL
Weather: no significant weather observed at this time

METAR text: RKTU 191300Z 24003KT 8000 NSC 10/05 Q1017
Conditions at: RKTU (JONGJU (KAFB-AR , KR) observed 1300 UTC 19 March 2019
Temperature: 10.0°C (50°F)
Dewpoint: 5.0°C (41°F) [RH = 71%]
Pressure (altimeter): 30.03 inches Hg (1017.0 mb)
Winds: from the WSW (240 degrees) at 3 MPH (3 knots; 1.5 m/s)
Visibility: 5 miles ( 8 km)
Ceiling: at least 12,000 feet AGL
Clouds: sky clear below 12,000 feet AGL
Weather: no significant weather observed at this time

METAR text: RKTU 191200Z 22007KT 8000 NSC 12/04 Q1017
Conditions at: RKTU (JONGJU (KAFB-AR , KR) observed 1200 UTC 19 March 2019
Temperature: 12.0°C (54°F)
Dewpoint: 4.0°C (39°F) [RH = 58%]
Pressure (altimeter): 30.03 inches Hg (1017.0 mb)
Winds: from the SW (220 degrees) at 8 MPH (7 knots; 3.6 m/s)
Visibility: 5 miles ( 8 km)
Ceiling: at least 12,000 feet AGL
Clouds: sky clear below 12,000 feet AGL
Weather: no significant weather observed at this time

METAR text: RKTU 191100Z 24007KT 9000 NSC 11/05 Q1016
Conditions at: RKTU (JONGJU (KAFB-AR , KR) observed 1100 UTC 19 March 2019
Temperature: 11.0°C (52°F)
Dewpoint: 5.0°C (41°F) [RH = 66%]
Pressure (altimeter): 30.00 inches Hg (1016.0 mb)
Winds: from the WSW (240 degrees) at 8 MPH (7 knots; 3.6 m/s)
Visibility: 6 miles ( 9 km)
Ceiling: at least 12,000 feet AGL
Clouds: sky clear below 12,000 feet AGL
Weather: no significant weather observed at this time

METAR text: RKTU 191000Z 25006KT 9000 NSC 15/06 Q1015
Conditions at: RKTU (JONGJU (KAFB-AR , KR) observed 1000 UTC 19 March 2019
Temperature: 15.0°C (59°F)
Dewpoint: 6.0°C (43°F) [RH = 55%]
Pressure (altimeter): 29.97 inches Hg (1015.0 mb)
Winds: from the WSW (250 degrees) at 7 MPH (6 knots; 3.1 m/s)
Visibility: 6 miles ( 9 km)
Ceiling: at least 12,000 feet AGL
Clouds: sky clear below 12,000 feet AGL
Weather: no significant weather observed at this time

METAR text: RKTU 190900Z 22007KT 9000 NSC 17/05 Q1014
Conditions at: RKTU (JONGJU (KAFB-AR , KR) observed 0900 UTC 19 March 2019
Temperature: 17.0°C (63°F)
Dewpoint: 5.0°C (41°F) [RH = 45%]
Pressure (altimeter): 29.94 inches Hg (1014.0 mb)
Winds: from the SW (220 degrees) at 8 MPH (7 knots; 3.6 m/s)
Visibility: 6 miles ( 9 km)
Ceiling: at least 12,000 feet AGL
Clouds: sky clear below 12,000 feet AGL
Weather: no significant weather observed at this time

METAR text: RKTU 190800Z 20007KT 9000 NSC 19/03 Q1014
Conditions at: RKTU (JONGJU (KAFB-AR , KR) observed 0800 UTC 19 March 2019
Temperature: 19.0°C (66°F)
Dewpoint: 3.0°C (37°F) [RH = 34%]
Pressure (altimeter): 29.94 inches Hg (1014.0 mb)
Winds: from the SSW (200 degrees) at 8 MPH (7 knots; 3.6 m/s)
Visibility: 6 miles ( 9 km)
Ceiling: at least 12,000 feet AGL
Clouds: sky clear below 12,000 feet AGL
Weather: no significant weather observed at this time

METAR text: RKTU 190700Z 17003KT CAVOK 19/01 Q1015
Conditions at: RKTU (JONGJU (KAFB-AR , KR) observed 0700 UTC 19 March 2019
Temperature: 19.0°C (66°F)
Dewpoint: 1.0°C (34°F) [RH = 30%]
Pressure (altimeter): 29.97 inches Hg (1015.0 mb)
Winds: from the S (170 degrees) at 3 MPH (3 knots; 1.5 m/s)
Visibility: 6 or more miles (10+ km)
Ceiling: ceiling and visibility are OK
Clouds: unknown
Weather: no significant weather observed at this time

METAR text: RKTU 190600Z 25005KT CAVOK 18/M01 Q1015
Conditions at: RKTU (JONGJU (KAFB-AR , KR) observed 0600 UTC 19 March 2019
Temperature: 18.0°C (64°F)
Dewpoint: -1.0°C (30°F) [RH = 28%]
Pressure (altimeter): 29.97 inches Hg (1015.0 mb)
Winds: from the WSW (250 degrees) at 6 MPH (5 knots; 2.6 m/s)
Visibility: 6 or more miles (10+ km)
Ceiling: ceiling and visibility are OK
Clouds: unknown
Weather: no significant weather observed at this time

METAR text: RKTU 190500Z 24006KT CAVOK 17/M03 Q1016
Conditions at: RKTU (JONGJU (KAFB-AR , KR) observed 0500 UTC 19 March 2019
Temperature: 17.0°C (63°F)
Dewpoint: -3.0°C (27°F) [RH = 25%]
Pressure (altimeter): 30.00 inches Hg (1016.0 mb)
Winds: from the WSW (240 degrees) at 7 MPH (6 knots; 3.1 m/s)
Visibility: 6 or more miles (10+ km)
Ceiling: ceiling and visibility are OK
Clouds: unknown
Weather: no significant weather observed at this time

METAR text: RKTU 190400Z 22005KT CAVOK 16/M06 Q1017
Conditions at: RKTU (JONGJU (KAFB-AR , KR) observed 0400 UTC 19 March 2019
Temperature: 16.0°C (61°F)
Dewpoint: -6.0°C (21°F) [RH = 21%]
Pressure (altimeter): 30.03 inches Hg (1017.0 mb)
Winds: from the SW (220 degrees) at 6 MPH (5 knots; 2.6 m/s)
Visibility: 6 or more miles (10+ km)
Ceiling: ceiling and visibility are OK
Clouds: unknown
Weather: no significant weather observed at this time

METAR text: RKTU 190300Z 24003KT CAVOK 14/M07 Q1017
Conditions at: RKTU (JONGJU (KAFB-AR , KR) observed 0300 UTC 19 March 2019
Temperature: 14.0°C (57°F)
Dewpoint: -7.0°C (19°F) [RH = 23%]
Pressure (altimeter): 30.03 inches Hg (1017.0 mb)
Winds: from the WSW (240 degrees) at 3 MPH (3 knots; 1.5 m/s)
Visibility: 6 or more miles (10+ km)
Ceiling: ceiling and visibility are OK
Clouds: unknown
Weather: no significant weather observed at this time

METAR text: RKTU 190200Z 22004KT CAVOK 11/M06 Q1018
Conditions at: RKTU (JONGJU (KAFB-AR , KR) observed 0200 UTC 19 March 2019
Temperature: 11.0°C (52°F)
Dewpoint: -6.0°C (21°F) [RH = 30%]
Pressure (altimeter): 30.06 inches Hg (1018.0 mb)
Winds: from the SW (220 degrees) at 5 MPH (4 knots; 2.1 m/s)
Visibility: 6 or more miles (10+ km)
Ceiling: ceiling and visibility are OK
Clouds: unknown
Weather: no significant weather observed at this time

METAR text: RKTU 190100Z 28002KT CAVOK 08/M02 Q1019
Conditions at: RKTU (JONGJU (KAFB-AR , KR) observed 0100 UTC 19 March 2019
Temperature: 8.0°C (46°F)
Dewpoint: -2.0°C (28°F) [RH = 49%]
Pressure (altimeter): 30.09 inches Hg (1019.0 mb)
Winds: from the W (280 degrees) at 2 MPH (2 knots; 1.0 m/s)
Visibility: 6 or more miles (10+ km)
Ceiling: ceiling and visibility are OK
Clouds: unknown
Weather: no significant weather observed at this time

METAR text: RKTU 190000Z 09001KT CAVOK 05/M02 Q1018
Conditions at: RKTU (JONGJU (KAFB-AR , KR) observed 0000 UTC 19 March 2019
Temperature: 5.0°C (41°F)
Dewpoint: -2.0°C (28°F) [RH = 60%]
Pressure (altimeter): 30.06 inches Hg (1018.0 mb)
Winds: from the E (90 degrees) at 1 MPH (1 knots; 0.5 m/s)
Visibility: 6 or more miles (10+ km)
Ceiling: ceiling and visibility are OK
Clouds: unknown
Weather: no significant weather observed at this time

METAR text: RKTU 182300Z 06001KT CAVOK 01/M02 Q1018
Conditions at: RKTU (JONGJU (KAFB-AR , KR) observed 2300 UTC 18 March 2019
Temperature: 1.0°C (34°F)
Dewpoint: -2.0°C (28°F) [RH = 80%]
Pressure (altimeter): 30.06 inches Hg (1018.0 mb)
Winds: from the ENE (60 degrees) at 1 MPH (1 knots; 0.5 m/s)
Visibility: 6 or more miles (10+ km)
Ceiling: ceiling and visibility are OK
Clouds: unknown
Weather: no significant weather observed at this time

METAR text: RKTU 182200Z 07001KT CAVOK M02/M05 Q1017
Conditions at: RKTU (JONGJU (KAFB-AR , KR) observed 2200 UTC 18 March 2019
Temperature: -2.0°C (28°F)
Dewpoint: -5.0°C (23°F) [RH = 80%]
Pressure (altimeter): 30.03 inches Hg (1017.0 mb)
Winds: from the ENE (70 degrees) at 1 MPH (1 knots; 0.5 m/s)
Visibility: 6 or more miles (10+ km)
Ceiling: ceiling and visibility are OK
Clouds: unknown
Weather: no significant weather observed at this time

METAR text: RKTU 182100Z 09002KT CAVOK M02/M05 Q1017
Conditions at: RKTU (JONGJU (KAFB-AR , KR) observed 2100 UTC 18 March 2019
Temperature: -2.0°C (28°F)
Dewpoint: -5.0°C (23°F) [RH = 80%]
Pressure (altimeter): 30.03 inches Hg (1017.0 mb)
Winds: from the E (90 degrees) at 2 MPH (2 knots; 1.0 m/s)
Visibility: 6 or more miles (10+ km)
Ceiling: ceiling and visibility are OK
Clouds: unknown
Weather: no significant weather observed at this time

METAR text: RKTU 182000Z 18001KT CAVOK 00/M03 Q1016
Conditions at: RKTU (JONGJU (KAFB-AR , KR) observed 2000 UTC 18 March 2019
Temperature: 0.0°C (32°F)
Dewpoint: -3.0°C (27°F) [RH = 80%]
Pressure (altimeter): 30.00 inches Hg (1016.0 mb)
Winds: from the S (180 degrees) at 1 MPH (1 knots; 0.5 m/s)
Visibility: 6 or more miles (10+ km)
Ceiling: ceiling and visibility are OK
Clouds: unknown
Weather: no significant weather observed at this time

METAR text: RKTU 181900Z 02002KT CAVOK 00/M03 Q1016
Conditions at: RKTU (JONGJU (KAFB-AR , KR) observed 1900 UTC 18 March 2019
Temperature: 0.0°C (32°F)
Dewpoint: -3.0°C (27°F) [RH = 80%]
Pressure (altimeter): 30.00 inches Hg (1016.0 mb)
Winds: from the NNE (20 degrees) at 2 MPH (2 knots; 1.0 m/s)
Visibility: 6 or more miles (10+ km)
Ceiling: ceiling and visibility are OK
Clouds: unknown
Weather: no significant weather observed at this time

METAR text: RKTU 181800Z 09002KT CAVOK 01/M03 Q1016
Conditions at: RKTU (JONGJU (KAFB-AR , KR) observed 1800 UTC 18 March 2019
Temperature: 1.0°C (34°F)
Dewpoint: -3.0°C (27°F) [RH = 75%]
Pressure (altimeter): 30.00 inches Hg (1016.0 mb)
Winds: from the E (90 degrees) at 2 MPH (2 knots; 1.0 m/s)
Visibility: 6 or more miles (10+ km)
Ceiling: ceiling and visibility are OK
Clouds: unknown
Weather: no significant weather observed at this time

METAR text: RKTU 181700Z 14001KT CAVOK 01/M04 Q1017
Conditions at: RKTU (JONGJU (KAFB-AR , KR) observed 1700 UTC 18 March 2019
Temperature: 1.0°C (34°F)
Dewpoint: -4.0°C (25°F) [RH = 69%]
Pressure (altimeter): 30.03 inches Hg (1017.0 mb)
Winds: from the SE (140 degrees) at 1 MPH (1 knots; 0.5 m/s)
Visibility: 6 or more miles (10+ km)
Ceiling: ceiling and visibility are OK
Clouds: unknown
Weather: no significant weather observed at this time

METAR text: RKTU 181600Z 35001KT CAVOK 01/M03 Q1017
Conditions at: RKTU (JONGJU (KAFB-AR , KR) observed 1600 UTC 18 March 2019
Temperature: 1.0°C (34°F)
Dewpoint: -3.0°C (27°F) [RH = 75%]
Pressure (altimeter): 30.03 inches Hg (1017.0 mb)
Winds: from the N (350 degrees) at 1 MPH (1 knots; 0.5 m/s)
Visibility: 6 or more miles (10+ km)
Ceiling: ceiling and visibility are OK
Clouds: unknown
Weather: no significant weather observed at this time

METAR text: RKTU 181500Z 08001KT CAVOK 05/M03 Q1017
Conditions at: RKTU (JONGJU (KAFB-AR , KR) observed 1500 UTC 18 March 2019
Temperature: 5.0°C (41°F)
Dewpoint: -3.0°C (27°F) [RH = 56%]
Pressure (altimeter): 30.03 inches Hg (1017.0 mb)
Winds: from the E (80 degrees) at 1 MPH (1 knots; 0.5 m/s)
Visibility: 6 or more miles (10+ km)
Ceiling: ceiling and visibility are OK
Clouds: unknown
Weather: no significant weather observed at this time

Forecast for: RKTU (JONGJU (KAFB-AR , KR)
Text: TAF RKTU 192300Z 2000/2106 24008KT 1600 BR NSC TX16/2006Z TN08/2021Z
Forecast period: 0000 to 0100 UTC 20 March 2019
Forecast type: FROM: standard forecast or significant change
Winds: from the WSW (240 degrees) at 9 MPH (8 knots; 4.1 m/s)
Visibility: 0.99 miles (1.59 km)
Ceiling: unknown
Clouds: missing
Weather: BR  (mist)
Text: BECMG 2001/2002 4800
Forecast period: 0100 to 0200 UTC 20 March 2019
Forecast type: BECOMING: Conditions expected to become as follows by 0200 UTC 20 March 2019
Winds: from the WSW (240 degrees) at 9 MPH (8 knots; 4.1 m/s)
Visibility: 2.98 miles (4.80 km)
Ceiling: unknown
Clouds: missing
Weather: BR  (mist)
Text: BECMG 2002/2003 9000 NSW
Forecast period: 0200 to 0500 UTC 20 March 2019
Forecast type: BECOMING: Conditions expected to become as follows by 0300 UTC 20 March 2019
Winds: from the WSW (240 degrees) at 9 MPH (8 knots; 4.1 m/s)
Visibility: 6 miles (9 km)
Ceiling: unknown
Clouds: missing
Weather: NSW  (no significant weather)
Text: BECMG 2005/2006 24012KT
Forecast period: 0500 to 0700 UTC 20 March 2019
Forecast type: BECOMING: Conditions expected to become as follows by 0600 UTC 20 March 2019
Winds: from the WSW (240 degrees) at 14 MPH (12 knots; 6.2 m/s)
Visibility: 6 miles (9 km)
Ceiling: unknown
Clouds: missing
Weather: NSW  (no significant weather)
Text: BECMG 2007/2008 4800 -RA BR BKN030 BKN100
Forecast period: 0700 to 0900 UTC 20 March 2019
Forecast type: BECOMING: Conditions expected to become as follows by 0800 UTC 20 March 2019
Winds: from the WSW (240 degrees) at 14 MPH (12 knots; 6.2 m/s)
Visibility: 2.98 miles (4.80 km)
Ceiling: 3000 feet AGL
Clouds: broken clouds at 3000 feet AGL
broken clouds at 10000 feet AGL
Weather: -RA BR  (light rain, mist)
Text: BECMG 2009/2010 24010KT 3200 BKN015 OVC030
Forecast period: 0900 UTC 20 March 2019 to 0000 UTC 21 March 2019
Forecast type: BECOMING: Conditions expected to become as follows by 1000 UTC 20 March 2019
Winds: from the WSW (240 degrees) at 12 MPH (10 knots; 5.1 m/s)
Visibility: 1.99 miles (3.20 km)
Ceiling: 1500 feet AGL
Clouds: broken clouds at 1500 feet AGL
overcast cloud deck at 3000 feet AGL
Weather: -RA BR  (light rain, mist)
Text: BECMG 2100/2101 30006KT 4800 BR BKN015 BKN030
Forecast period: 0000 to 0600 UTC 21 March 2019
Forecast type: BECOMING: Conditions expected to become as follows by 0100 UTC 21 March 2019
Winds: from the WNW (300 degrees) at 7 MPH (6 knots; 3.1 m/s)
Visibility: 2.98 miles (4.80 km)
Ceiling: 1500 feet AGL
Clouds: broken clouds at 1500 feet AGL
broken clouds at 3000 feet AGL
Weather: BR  (mist)